sensor_id;sensor_type;location;lat;lon;timestamp;P1;durP1;ratioP1;P2;durP2;ratioP2
61254;SDS011;47128;47.530;8.584;2022-07-29T00:00:41;4.72;;;2.13;;
61254;SDS011;47128;47.530;8.584;2022-07-29T00:03:09;4.53;;;2.38;;
61254;SDS011;47128;47.530;8.584;2022-07-29T00:05:37;3.33;;;2.10;;
61254;SDS011;47128;47.530;8.584;2022-07-29T00:08:04;3.88;;;1.88;;
61254;SDS011;47128;47.530;8.584;2022-07-29T00:10:29;3.50;;;1.90;;
61254;SDS011;47128;47.530;8.584;2022-07-29T00:12:55;4.05;;;1.88;;
61254;SDS011;47128;47.530;8.584;2022-07-29T00:15:20;3.58;;;2.03;;
61254;SDS011;47128;47.530;8.584;2022-07-29T00:17:46;2.20;;;1.70;;
61254;SDS011;47128;47.530;8.584;2022-07-29T00:20:12;2.60;;;2.20;;
61254;SDS011;47128;47.530;8.584;2022-07-29T00:22:38;2.03;;;1.80;;
61254;SDS011;47128;47.530;8.584;2022-07-29T00:25:04;2.67;;;2.00;;
61254;SDS011;47128;47.530;8.584;2022-07-29T00:27:31;5.55;;;2.20;;
61254;SDS011;47128;47.530;8.584;2022-07-29T00:29:57;2.22;;;1.73;;
61254;SDS011;47128;47.530;8.584;2022-07-29T00:32:22;3.33;;;1.95;;
61254;SDS011;47128;47.530;8.584;2022-07-29T00:34:48;3.45;;;1.85;;
61254;SDS011;47128;47.530;8.584;2022-07-29T00:37:32;4.32;;;2.25;;
61254;SDS011;47128;47.530;8.584;2022-07-29T00:39:57;4.38;;;2.05;;
61254;SDS011;47128;47.530;8.584;2022-07-29T00:42:23;2.60;;;2.00;;
61254;SDS011;47128;47.530;8.584;2022-07-29T00:44:49;2.60;;;1.70;;
61254;SDS011;47128;47.530;8.584;2022-07-29T00:47:14;2.70;;;1.85;;
61254;SDS011;47128;47.530;8.584;2022-07-29T00:49:41;2.15;;;1.95;;
61254;SDS011;47128;47.530;8.584;2022-07-29T00:52:07;2.63;;;1.95;;
61254;SDS011;47128;47.530;8.584;2022-07-29T00:54:34;2.92;;;1.77;;
61254;SDS011;47128;47.530;8.584;2022-07-29T00:57:00;5.35;;;2.20;;
61254;SDS011;47128;47.530;8.584;2022-07-29T00:59:27;3.38;;;2.17;;
61254;SDS011;47128;47.530;8.584;2022-07-29T01:01:53;4.05;;;2.22;;
61254;SDS011;47128;47.530;8.584;2022-07-29T01:04:20;3.60;;;1.98;;
61254;SDS011;47128;47.530;8.584;2022-07-29T01:06:46;3.05;;;1.83;;
61254;SDS011;47128;47.530;8.584;2022-07-29T01:09:13;3.88;;;2.08;;
61254;SDS011;47128;47.530;8.584;2022-07-29T01:11:40;3.83;;;2.40;;
61254;SDS011;47128;47.530;8.584;2022-07-29T01:14:08;3.22;;;2.42;;
61254;SDS011;47128;47.530;8.584;2022-07-29T01:17:17;5.18;;;2.10;;
61254;SDS011;47128;47.530;8.584;2022-07-29T01:22:07;4.20;;;2.20;;
61254;SDS011;47128;47.530;8.584;2022-07-29T01:27:55;2.58;;;1.88;;
61254;SDS011;47128;47.530;8.584;2022-07-29T01:30:31;2.35;;;1.45;;
61254;SDS011;47128;47.530;8.584;2022-07-29T01:33:00;4.55;;;2.03;;
61254;SDS011;47128;47.530;8.584;2022-07-29T01:35:32;2.55;;;1.73;;
61254;SDS011;47128;47.530;8.584;2022-07-29T01:38:20;2.92;;;1.90;;
61254;SDS011;47128;47.530;8.584;2022-07-29T01:40:49;3.97;;;1.95;;
61254;SDS011;47128;47.530;8.584;2022-07-29T01:43:20;2.38;;;2.17;;
61254;SDS011;47128;47.530;8.584;2022-07-29T01:46:02;2.33;;;1.92;;
61254;SDS011;47128;47.530;8.584;2022-07-29T01:48:39;6.70;;;2.00;;
61254;SDS011;47128;47.530;8.584;2022-07-29T01:51:13;3.70;;;2.00;;
61254;SDS011;47128;47.530;8.584;2022-07-29T01:54:02;4.03;;;2.30;;
61254;SDS011;47128;47.530;8.584;2022-07-29T01:56:35;4.18;;;2.03;;
61254;SDS011;47128;47.530;8.584;2022-07-29T01:59:03;2.53;;;2.05;;
61254;SDS011;47128;47.530;8.584;2022-07-29T02:01:31;3.97;;;1.83;;
61254;SDS011;47128;47.530;8.584;2022-07-29T02:03:58;3.25;;;2.28;;
61254;SDS011;47128;47.530;8.584;2022-07-29T02:06:27;4.80;;;2.35;;
61254;SDS011;47128;47.530;8.584;2022-07-29T02:08:54;4.00;;;2.42;;
61254;SDS011;47128;47.530;8.584;2022-07-29T02:11:22;4.07;;;2.25;;
61254;SDS011;47128;47.530;8.584;2022-07-29T02:13:48;5.90;;;2.47;;
61254;SDS011;47128;47.530;8.584;2022-07-29T02:16:17;2.63;;;2.10;;
61254;SDS011;47128;47.530;8.584;2022-07-29T02:18:45;4.55;;;2.20;;
61254;SDS011;47128;47.530;8.584;2022-07-29T02:21:15;4.15;;;2.40;;
61254;SDS011;47128;47.530;8.584;2022-07-29T02:23:46;2.90;;;2.30;;
61254;SDS011;47128;47.530;8.584;2022-07-29T02:26:13;4.40;;;2.20;;
61254;SDS011;47128;47.530;8.584;2022-07-29T02:28:41;3.88;;;2.45;;
61254;SDS011;47128;47.530;8.584;2022-07-29T02:31:08;3.60;;;2.47;;
61254;SDS011;47128;47.530;8.584;2022-07-29T02:33:35;5.40;;;3.05;;
61254;SDS011;47128;47.530;8.584;2022-07-29T02:36:02;4.07;;;2.75;;
61254;SDS011;47128;47.530;8.584;2022-07-29T02:38:28;4.40;;;2.20;;
61254;SDS011;47128;47.530;8.584;2022-07-29T02:41:16;5.03;;;2.80;;
61254;SDS011;47128;47.530;8.584;2022-07-29T02:43:46;3.80;;;2.72;;
61254;SDS011;47128;47.530;8.584;2022-07-29T02:46:19;3.13;;;2.28;;
61254;SDS011;47128;47.530;8.584;2022-07-29T02:48:51;5.53;;;2.63;;
61254;SDS011;47128;47.530;8.584;2022-07-29T02:51:27;4.85;;;2.67;;
61254;SDS011;47128;47.530;8.584;2022-07-29T02:53:57;3.97;;;2.35;;
61254;SDS011;47128;47.530;8.584;2022-07-29T02:56:29;4.00;;;2.63;;
61254;SDS011;47128;47.530;8.584;2022-07-29T02:59:00;3.53;;;2.50;;
61254;SDS011;47128;47.530;8.584;2022-07-29T03:01:31;4.30;;;2.25;;
61254;SDS011;47128;47.530;8.584;2022-07-29T03:03:59;4.15;;;2.60;;
61254;SDS011;47128;47.530;8.584;2022-07-29T03:06:28;4.13;;;2.42;;
61254;SDS011;47128;47.530;8.584;2022-07-29T03:08:55;4.20;;;2.33;;
61254;SDS011;47128;47.530;8.584;2022-07-29T03:11:22;5.35;;;2.63;;
61254;SDS011;47128;47.530;8.584;2022-07-29T03:13:48;3.72;;;2.30;;
61254;SDS011;47128;47.530;8.584;2022-07-29T03:16:14;5.53;;;2.63;;
61254;SDS011;47128;47.530;8.584;2022-07-29T03:18:40;3.33;;;2.25;;
61254;SDS011;47128;47.530;8.584;2022-07-29T03:21:06;4.95;;;2.05;;
61254;SDS011;47128;47.530;8.584;2022-07-29T03:23:33;6.00;;;2.85;;
61254;SDS011;47128;47.530;8.584;2022-07-29T03:25:59;4.50;;;2.40;;
61254;SDS011;47128;47.530;8.584;2022-07-29T03:28:25;3.25;;;2.40;;
61254;SDS011;47128;47.530;8.584;2022-07-29T03:30:52;3.60;;;2.88;;
61254;SDS011;47128;47.530;8.584;2022-07-29T03:33:18;4.43;;;2.50;;
61254;SDS011;47128;47.530;8.584;2022-07-29T03:35:43;4.53;;;2.47;;
61254;SDS011;47128;47.530;8.584;2022-07-29T03:38:10;3.80;;;2.30;;
61254;SDS011;47128;47.530;8.584;2022-07-29T03:40:38;4.00;;;2.13;;
61254;SDS011;47128;47.530;8.584;2022-07-29T03:43:09;6.95;;;2.50;;
61254;SDS011;47128;47.530;8.584;2022-07-29T03:45:36;3.80;;;2.72;;
61254;SDS011;47128;47.530;8.584;2022-07-29T03:48:07;2.40;;;1.83;;
61254;SDS011;47128;47.530;8.584;2022-07-29T03:50:35;3.58;;;1.92;;
61254;SDS011;47128;47.530;8.584;2022-07-29T03:53:01;5.00;;;2.50;;
61254;SDS011;47128;47.530;8.584;2022-07-29T03:55:28;2.70;;;2.05;;
61254;SDS011;47128;47.530;8.584;2022-07-29T03:57:57;2.72;;;1.88;;
61254;SDS011;47128;47.530;8.584;2022-07-29T04:00:24;3.72;;;2.20;;
61254;SDS011;47128;47.530;8.584;2022-07-29T04:02:51;3.97;;;2.00;;
61254;SDS011;47128;47.530;8.584;2022-07-29T04:05:17;3.08;;;2.20;;
61254;SDS011;47128;47.530;8.584;2022-07-29T04:07:44;4.15;;;2.35;;
61254;SDS011;47128;47.530;8.584;2022-07-29T04:10:10;3.65;;;2.28;;
61254;SDS011;47128;47.530;8.584;2022-07-29T04:12:36;5.05;;;2.30;;
61254;SDS011;47128;47.530;8.584;2022-07-29T04:15:05;5.00;;;2.00;;
61254;SDS011;47128;47.530;8.584;2022-07-29T04:17:31;4.15;;;1.80;;
61254;SDS011;47128;47.530;8.584;2022-07-29T04:19:57;4.85;;;2.28;;
61254;SDS011;47128;47.530;8.584;2022-07-29T04:22:22;5.05;;;2.20;;
61254;SDS011;47128;47.530;8.584;2022-07-29T04:24:48;4.97;;;2.20;;
61254;SDS011;47128;47.530;8.584;2022-07-29T04:27:14;4.75;;;2.20;;
61254;SDS011;47128;47.530;8.584;2022-07-29T04:29:39;5.43;;;1.90;;
61254;SDS011;47128;47.530;8.584;2022-07-29T04:32:05;6.47;;;2.20;;
61254;SDS011;47128;47.530;8.584;2022-07-29T04:34:31;4.50;;;2.35;;
61254;SDS011;47128;47.530;8.584;2022-07-29T04:36:56;3.15;;;2.40;;
61254;SDS011;47128;47.530;8.584;2022-07-29T04:39:22;3.78;;;2.40;;
61254;SDS011;47128;47.530;8.584;2022-07-29T04:41:48;4.65;;;2.00;;
61254;SDS011;47128;47.530;8.584;2022-07-29T04:44:15;4.30;;;2.80;;
61254;SDS011;47128;47.530;8.584;2022-07-29T04:46:40;6.93;;;2.92;;
61254;SDS011;47128;47.530;8.584;2022-07-29T04:49:06;8.82;;;2.35;;
61254;SDS011;47128;47.530;8.584;2022-07-29T04:51:32;2.28;;;2.08;;
61254;SDS011;47128;47.530;8.584;2022-07-29T04:53:58;6.18;;;2.60;;
61254;SDS011;47128;47.530;8.584;2022-07-29T04:56:25;5.60;;;2.40;;
61254;SDS011;47128;47.530;8.584;2022-07-29T04:58:51;3.33;;;2.10;;
61254;SDS011;47128;47.530;8.584;2022-07-29T05:01:17;3.90;;;2.10;;
61254;SDS011;47128;47.530;8.584;2022-07-29T05:03:43;5.05;;;2.30;;
61254;SDS011;47128;47.530;8.584;2022-07-29T05:06:10;3.72;;;2.30;;
61254;SDS011;47128;47.530;8.584;2022-07-29T05:08:35;2.53;;;2.10;;
61254;SDS011;47128;47.530;8.584;2022-07-29T05:11:01;4.50;;;2.33;;
61254;SDS011;47128;47.530;8.584;2022-07-29T05:13:27;3.38;;;2.65;;
61254;SDS011;47128;47.530;8.584;2022-07-29T05:15:52;3.65;;;2.03;;
61254;SDS011;47128;47.530;8.584;2022-07-29T05:18:19;2.75;;;2.05;;
61254;SDS011;47128;47.530;8.584;2022-07-29T05:20:44;3.47;;;2.10;;
61254;SDS011;47128;47.530;8.584;2022-07-29T05:23:10;3.83;;;1.90;;
61254;SDS011;47128;47.530;8.584;2022-07-29T05:25:37;5.60;;;2.35;;
61254;SDS011;47128;47.530;8.584;2022-07-29T05:28:04;4.20;;;2.17;;
61254;SDS011;47128;47.530;8.584;2022-07-29T05:30:29;4.90;;;2.53;;
61254;SDS011;47128;47.530;8.584;2022-07-29T05:32:55;5.03;;;2.55;;
61254;SDS011;47128;47.530;8.584;2022-07-29T05:35:21;3.53;;;2.22;;
61254;SDS011;47128;47.530;8.584;2022-07-29T05:37:46;2.60;;;2.28;;
61254;SDS011;47128;47.530;8.584;2022-07-29T05:40:12;4.30;;;2.30;;
61254;SDS011;47128;47.530;8.584;2022-07-29T05:42:38;4.82;;;2.67;;
61254;SDS011;47128;47.530;8.584;2022-07-29T05:45:04;4.32;;;2.17;;
61254;SDS011;47128;47.530;8.584;2022-07-29T05:47:38;4.82;;;2.55;;
61254;SDS011;47128;47.530;8.584;2022-07-29T05:50:07;2.05;;;1.85;;
61254;SDS011;47128;47.530;8.584;2022-07-29T05:52:33;3.50;;;2.15;;
61254;SDS011;47128;47.530;8.584;2022-07-29T05:54:59;2.90;;;2.30;;
61254;SDS011;47128;47.530;8.584;2022-07-29T05:57:27;4.22;;;2.40;;
61254;SDS011;47128;47.530;8.584;2022-07-29T05:59:55;4.57;;;2.20;;
61254;SDS011;47128;47.530;8.584;2022-07-29T06:02:21;3.20;;;2.33;;
61254;SDS011;47128;47.530;8.584;2022-07-29T06:04:47;3.92;;;2.55;;
61254;SDS011;47128;47.530;8.584;2022-07-29T06:07:14;3.38;;;2.40;;
61254;SDS011;47128;47.530;8.584;2022-07-29T06:09:42;4.53;;;2.60;;
61254;SDS011;47128;47.530;8.584;2022-07-29T06:12:18;5.22;;;2.67;;
61254;SDS011;47128;47.530;8.584;2022-07-29T06:14:44;7.30;;;2.50;;
61254;SDS011;47128;47.530;8.584;2022-07-29T06:17:13;3.92;;;2.35;;
61254;SDS011;47128;47.530;8.584;2022-07-29T06:19:48;5.57;;;2.17;;
61254;SDS011;47128;47.530;8.584;2022-07-29T06:22:52;5.97;;;2.40;;
61254;SDS011;47128;47.530;8.584;2022-07-29T06:25:18;4.60;;;2.55;;
61254;SDS011;47128;47.530;8.584;2022-07-29T06:27:43;6.13;;;2.13;;
61254;SDS011;47128;47.530;8.584;2022-07-29T06:30:09;3.17;;;2.38;;
61254;SDS011;47128;47.530;8.584;2022-07-29T06:32:38;3.95;;;2.45;;
61254;SDS011;47128;47.530;8.584;2022-07-29T06:35:05;6.07;;;2.15;;
61254;SDS011;47128;47.530;8.584;2022-07-29T06:37:34;4.50;;;2.53;;
61254;SDS011;47128;47.530;8.584;2022-07-29T06:42:58;4.13;;;1.92;;
61254;SDS011;47128;47.530;8.584;2022-07-29T06:45:24;3.78;;;1.70;;
61254;SDS011;47128;47.530;8.584;2022-07-29T06:47:52;3.78;;;2.10;;
61254;SDS011;47128;47.530;8.584;2022-07-29T06:50:18;2.17;;;1.67;;
61254;SDS011;47128;47.530;8.584;2022-07-29T06:52:43;2.83;;;1.50;;
61254;SDS011;47128;47.530;8.584;2022-07-29T06:55:09;5.20;;;1.90;;
61254;SDS011;47128;47.530;8.584;2022-07-29T06:57:39;3.25;;;1.90;;
61254;SDS011;47128;47.530;8.584;2022-07-29T07:00:04;3.83;;;1.90;;
61254;SDS011;47128;47.530;8.584;2022-07-29T07:02:36;4.10;;;1.73;;
61254;SDS011;47128;47.530;8.584;2022-07-29T07:05:06;5.13;;;2.10;;
61254;SDS011;47128;47.530;8.584;2022-07-29T07:07:32;3.42;;;1.88;;
61254;SDS011;47128;47.530;8.584;2022-07-29T07:09:57;5.30;;;2.00;;
61254;SDS011;47128;47.530;8.584;2022-07-29T07:12:25;5.75;;;2.22;;
61254;SDS011;47128;47.530;8.584;2022-07-29T07:14:51;3.03;;;1.90;;
61254;SDS011;47128;47.530;8.584;2022-07-29T07:17:19;3.33;;;1.77;;
61254;SDS011;47128;47.530;8.584;2022-07-29T07:19:44;3.42;;;2.22;;
61254;SDS011;47128;47.530;8.584;2022-07-29T07:22:12;2.72;;;1.80;;
61254;SDS011;47128;47.530;8.584;2022-07-29T07:24:40;3.30;;;2.10;;
61254;SDS011;47128;47.530;8.584;2022-07-29T07:27:06;2.75;;;1.85;;
61254;SDS011;47128;47.530;8.584;2022-07-29T07:29:35;3.15;;;1.90;;
61254;SDS011;47128;47.530;8.584;2022-07-29T07:35:25;10.10;;;2.45;;
61254;SDS011;47128;47.530;8.584;2022-07-29T07:41:49;4.90;;;2.35;;
61254;SDS011;47128;47.530;8.584;2022-07-29T07:44:20;5.57;;;1.88;;
61254;SDS011;47128;47.530;8.584;2022-07-29T07:46:48;3.78;;;1.95;;
61254;SDS011;47128;47.530;8.584;2022-07-29T07:49:23;6.15;;;2.38;;
61254;SDS011;47128;47.530;8.584;2022-07-29T07:52:11;3.53;;;2.08;;
61254;SDS011;47128;47.530;8.584;2022-07-29T07:54:42;4.88;;;2.00;;
61254;SDS011;47128;47.530;8.584;2022-07-29T07:57:19;3.08;;;1.95;;
61254;SDS011;47128;47.530;8.584;2022-07-29T07:59:49;3.13;;;2.10;;
61254;SDS011;47128;47.530;8.584;2022-07-29T08:02:18;3.92;;;2.25;;
61254;SDS011;47128;47.530;8.584;2022-07-29T08:04:47;3.85;;;2.25;;
61254;SDS011;47128;47.530;8.584;2022-07-29T08:07:15;4.03;;;2.20;;
61254;SDS011;47128;47.530;8.584;2022-07-29T08:09:41;4.03;;;2.50;;
61254;SDS011;47128;47.530;8.584;2022-07-29T08:12:07;4.38;;;2.35;;
61254;SDS011;47128;47.530;8.584;2022-07-29T08:14:33;3.22;;;2.20;;
61254;SDS011;47128;47.530;8.584;2022-07-29T08:17:02;4.10;;;2.47;;
61254;SDS011;47128;47.530;8.584;2022-07-29T08:19:27;3.78;;;2.47;;
61254;SDS011;47128;47.530;8.584;2022-07-29T08:21:54;4.63;;;2.40;;
61254;SDS011;47128;47.530;8.584;2022-07-29T08:24:23;2.63;;;2.35;;
61254;SDS011;47128;47.530;8.584;2022-07-29T08:27:08;2.88;;;2.50;;
61254;SDS011;47128;47.530;8.584;2022-07-29T08:29:38;3.75;;;2.30;;
61254;SDS011;47128;47.530;8.584;2022-07-29T08:34:53;4.70;;;2.33;;
61254;SDS011;47128;47.530;8.584;2022-07-29T08:37:22;3.85;;;2.38;;
61254;SDS011;47128;47.530;8.584;2022-07-29T08:39:51;4.38;;;2.30;;
61254;SDS011;47128;47.530;8.584;2022-07-29T08:42:26;3.47;;;2.67;;
61254;SDS011;47128;47.530;8.584;2022-07-29T08:44:52;4.80;;;2.80;;
61254;SDS011;47128;47.530;8.584;2022-07-29T08:47:19;3.97;;;2.17;;
61254;SDS011;47128;47.530;8.584;2022-07-29T08:49:47;4.20;;;3.00;;
61254;SDS011;47128;47.530;8.584;2022-07-29T08:52:14;5.03;;;2.90;;
61254;SDS011;47128;47.530;8.584;2022-07-29T08:54:43;9.32;;;2.58;;
61254;SDS011;47128;47.530;8.584;2022-07-29T08:57:13;3.72;;;2.85;;
61254;SDS011;47128;47.530;8.584;2022-07-29T08:59:40;2.72;;;2.42;;
61254;SDS011;47128;47.530;8.584;2022-07-29T09:04:49;5.45;;;3.15;;
61254;SDS011;47128;47.530;8.584;2022-07-29T09:07:16;4.15;;;2.67;;
61254;SDS011;47128;47.530;8.584;2022-07-29T09:09:43;4.13;;;3.10;;
61254;SDS011;47128;47.530;8.584;2022-07-29T09:12:09;5.35;;;2.78;;
61254;SDS011;47128;47.530;8.584;2022-07-29T09:14:38;4.78;;;2.95;;
61254;SDS011;47128;47.530;8.584;2022-07-29T09:17:08;4.20;;;3.28;;
61254;SDS011;47128;47.530;8.584;2022-07-29T09:19:35;5.72;;;3.20;;
61254;SDS011;47128;47.530;8.584;2022-07-29T09:22:06;6.43;;;3.33;;
61254;SDS011;47128;47.530;8.584;2022-07-29T09:24:36;6.50;;;2.83;;
61254;SDS011;47128;47.530;8.584;2022-07-29T09:27:08;9.18;;;3.45;;
61254;SDS011;47128;47.530;8.584;2022-07-29T09:32:24;5.10;;;3.10;;
61254;SDS011;47128;47.530;8.584;2022-07-29T09:34:51;5.03;;;2.78;;
61254;SDS011;47128;47.530;8.584;2022-07-29T09:37:44;5.97;;;3.08;;
61254;SDS011;47128;47.530;8.584;2022-07-29T09:40:11;7.28;;;3.08;;
61254;SDS011;47128;47.530;8.584;2022-07-29T09:42:44;3.83;;;2.67;;
61254;SDS011;47128;47.530;8.584;2022-07-29T09:45:29;4.00;;;3.05;;
61254;SDS011;47128;47.530;8.584;2022-07-29T09:47:57;4.50;;;2.88;;
61254;SDS011;47128;47.530;8.584;2022-07-29T09:50:41;4.80;;;3.20;;
61254;SDS011;47128;47.530;8.584;2022-07-29T09:53:09;4.30;;;2.85;;
61254;SDS011;47128;47.530;8.584;2022-07-29T09:55:50;3.97;;;3.00;;
61254;SDS011;47128;47.530;8.584;2022-07-29T09:58:17;4.05;;;3.25;;
61254;SDS011;47128;47.530;8.584;2022-07-29T10:00:44;6.65;;;3.25;;
61254;SDS011;47128;47.530;8.584;2022-07-29T10:03:11;5.32;;;3.33;;
61254;SDS011;47128;47.530;8.584;2022-07-29T10:05:38;4.55;;;2.92;;
61254;SDS011;47128;47.530;8.584;2022-07-29T10:08:04;5.70;;;2.95;;
61254;SDS011;47128;47.530;8.584;2022-07-29T10:10:32;3.65;;;2.90;;
61254;SDS011;47128;47.530;8.584;2022-07-29T10:13:10;4.38;;;2.60;;
61254;SDS011;47128;47.530;8.584;2022-07-29T10:15:40;6.10;;;3.30;;
61254;SDS011;47128;47.530;8.584;2022-07-29T10:18:09;4.90;;;2.85;;
61254;SDS011;47128;47.530;8.584;2022-07-29T10:20:37;4.03;;;2.70;;
61254;SDS011;47128;47.530;8.584;2022-07-29T10:23:03;4.82;;;2.95;;
61254;SDS011;47128;47.530;8.584;2022-07-29T10:25:30;3.15;;;2.47;;
61254;SDS011;47128;47.530;8.584;2022-07-29T10:28:04;4.57;;;2.92;;
61254;SDS011;47128;47.530;8.584;2022-07-29T10:30:31;5.05;;;2.55;;
61254;SDS011;47128;47.530;8.584;2022-07-29T10:44:21;6.68;;;2.60;;
61254;SDS011;47128;47.530;8.584;2022-07-29T10:46:49;3.25;;;2.63;;
61254;SDS011;47128;47.530;8.584;2022-07-29T10:49:16;4.22;;;2.60;;
61254;SDS011;47128;47.530;8.584;2022-07-29T11:07:24;4.20;;;2.58;;
61254;SDS011;47128;47.530;8.584;2022-07-29T11:22:59;2.97;;;2.53;;
61254;SDS011;47128;47.530;8.584;2022-07-29T11:25:25;5.13;;;2.97;;
61254;SDS011;47128;47.530;8.584;2022-07-29T11:27:51;7.03;;;2.70;;
61254;SDS011;47128;47.530;8.584;2022-07-29T11:30:19;6.72;;;2.67;;
61254;SDS011;47128;47.530;8.584;2022-07-29T11:32:45;3.60;;;2.63;;
61254;SDS011;47128;47.530;8.584;2022-07-29T11:35:22;4.10;;;2.67;;
61254;SDS011;47128;47.530;8.584;2022-07-29T11:38:23;4.22;;;2.40;;
61254;SDS011;47128;47.530;8.584;2022-07-29T11:43:51;3.88;;;2.65;;
61254;SDS011;47128;47.530;8.584;2022-07-29T11:49:23;3.53;;;2.67;;
61254;SDS011;47128;47.530;8.584;2022-07-29T11:51:53;4.50;;;2.65;;
61254;SDS011;47128;47.530;8.584;2022-07-29T11:54:24;4.95;;;2.67;;
61254;SDS011;47128;47.530;8.584;2022-07-29T11:57:00;3.40;;;2.55;;
61254;SDS011;47128;47.530;8.584;2022-07-29T11:59:27;2.80;;;2.60;;
61254;SDS011;47128;47.530;8.584;2022-07-29T12:01:55;5.60;;;2.83;;
61254;SDS011;47128;47.530;8.584;2022-07-29T12:04:22;4.10;;;2.80;;
61254;SDS011;47128;47.530;8.584;2022-07-29T12:06:51;2.63;;;2.35;;
61254;SDS011;47128;47.530;8.584;2022-07-29T12:09:18;5.82;;;2.90;;
61254;SDS011;47128;47.530;8.584;2022-07-29T12:11:45;4.32;;;3.10;;
61254;SDS011;47128;47.530;8.584;2022-07-29T12:14:24;4.72;;;3.00;;
61254;SDS011;47128;47.530;8.584;2022-07-29T12:16:58;5.85;;;2.92;;
61254;SDS011;47128;47.530;8.584;2022-07-29T12:19:25;4.13;;;2.70;;
61254;SDS011;47128;47.530;8.584;2022-07-29T12:21:52;4.93;;;2.97;;
61254;SDS011;47128;47.530;8.584;2022-07-29T12:24:23;4.47;;;2.60;;
61254;SDS011;47128;47.530;8.584;2022-07-29T12:27:07;4.22;;;3.00;;
61254;SDS011;47128;47.530;8.584;2022-07-29T12:29:42;5.22;;;2.42;;
61254;SDS011;47128;47.530;8.584;2022-07-29T12:32:09;5.95;;;2.38;;
61254;SDS011;47128;47.530;8.584;2022-07-29T12:34:35;5.18;;;2.65;;
61254;SDS011;47128;47.530;8.584;2022-07-29T12:37:01;5.22;;;2.58;;
61254;SDS011;47128;47.530;8.584;2022-07-29T12:39:28;3.40;;;2.65;;
61254;SDS011;47128;47.530;8.584;2022-07-29T12:41:54;4.15;;;2.83;;
61254;SDS011;47128;47.530;8.584;2022-07-29T12:44:20;3.60;;;2.58;;
61254;SDS011;47128;47.530;8.584;2022-07-29T12:46:49;3.22;;;2.67;;
61254;SDS011;47128;47.530;8.584;2022-07-29T12:49:27;3.63;;;2.53;;
61254;SDS011;47128;47.530;8.584;2022-07-29T12:52:25;3.95;;;2.83;;
61254;SDS011;47128;47.530;8.584;2022-07-29T12:54:55;5.40;;;2.67;;
61254;SDS011;47128;47.530;8.584;2022-07-29T12:57:21;3.55;;;2.75;;
61254;SDS011;47128;47.530;8.584;2022-07-29T13:00:04;4.95;;;2.60;;
61254;SDS011;47128;47.530;8.584;2022-07-29T13:02:35;3.65;;;2.40;;
61254;SDS011;47128;47.530;8.584;2022-07-29T13:05:05;3.00;;;2.50;;
61254;SDS011;47128;47.530;8.584;2022-07-29T13:07:34;3.15;;;2.40;;
61254;SDS011;47128;47.530;8.584;2022-07-29T13:10:17;4.40;;;2.45;;
61254;SDS011;47128;47.530;8.584;2022-07-29T13:15:34;4.05;;;2.60;;
61254;SDS011;47128;47.530;8.584;2022-07-29T13:18:01;3.97;;;2.10;;
61254;SDS011;47128;47.530;8.584;2022-07-29T13:20:28;2.42;;;2.22;;
61254;SDS011;47128;47.530;8.584;2022-07-29T13:22:55;3.75;;;2.00;;
61254;SDS011;47128;47.530;8.584;2022-07-29T13:25:27;3.45;;;3.15;;
61254;SDS011;47128;47.530;8.584;2022-07-29T13:27:54;6.28;;;2.40;;
61254;SDS011;47128;47.530;8.584;2022-07-29T13:30:20;4.15;;;2.10;;
61254;SDS011;47128;47.530;8.584;2022-07-29T13:32:46;3.88;;;2.50;;
61254;SDS011;47128;47.530;8.584;2022-07-29T13:35:12;6.05;;;2.65;;
61254;SDS011;47128;47.530;8.584;2022-07-29T13:37:38;3.33;;;2.63;;
61254;SDS011;47128;47.530;8.584;2022-07-29T13:40:06;5.45;;;2.80;;
61254;SDS011;47128;47.530;8.584;2022-07-29T13:42:38;6.18;;;2.50;;
61254;SDS011;47128;47.530;8.584;2022-07-29T13:45:08;3.63;;;3.13;;
61254;SDS011;47128;47.530;8.584;2022-07-29T13:47:36;5.05;;;3.08;;
61254;SDS011;47128;47.530;8.584;2022-07-29T13:50:03;3.67;;;2.95;;
61254;SDS011;47128;47.530;8.584;2022-07-29T13:52:35;5.40;;;2.93;;
61254;SDS011;47128;47.530;8.584;2022-07-29T13:55:03;5.80;;;2.78;;
61254;SDS011;47128;47.530;8.584;2022-07-29T13:57:29;7.03;;;2.90;;
61254;SDS011;47128;47.530;8.584;2022-07-29T13:59:55;6.70;;;3.63;;
61254;SDS011;47128;47.530;8.584;2022-07-29T14:02:21;4.97;;;3.30;;
61254;SDS011;47128;47.530;8.584;2022-07-29T14:04:48;4.40;;;3.38;;
61254;SDS011;47128;47.530;8.584;2022-07-29T14:07:14;5.10;;;3.03;;
61254;SDS011;47128;47.530;8.584;2022-07-29T14:09:39;5.05;;;3.60;;
61254;SDS011;47128;47.530;8.584;2022-07-29T14:12:05;5.13;;;3.50;;
61254;SDS011;47128;47.530;8.584;2022-07-29T14:14:31;5.97;;;3.53;;
61254;SDS011;47128;47.530;8.584;2022-07-29T14:16:57;7.07;;;4.22;;
61254;SDS011;47128;47.530;8.584;2022-07-29T14:19:26;5.53;;;3.95;;
61254;SDS011;47128;47.530;8.584;2022-07-29T14:21:52;5.80;;;3.90;;
61254;SDS011;47128;47.530;8.584;2022-07-29T14:24:17;5.40;;;4.10;;
61254;SDS011;47128;47.530;8.584;2022-07-29T14:26:43;5.90;;;3.80;;
61254;SDS011;47128;47.530;8.584;2022-07-29T14:29:09;6.32;;;4.38;;
61254;SDS011;47128;47.530;8.584;2022-07-29T14:31:36;6.90;;;4.57;;
61254;SDS011;47128;47.530;8.584;2022-07-29T14:34:02;6.22;;;4.07;;
61254;SDS011;47128;47.530;8.584;2022-07-29T14:36:28;6.13;;;4.18;;
61254;SDS011;47128;47.530;8.584;2022-07-29T14:38:53;6.13;;;4.07;;
61254;SDS011;47128;47.530;8.584;2022-07-29T14:41:19;6.53;;;4.20;;
61254;SDS011;47128;47.530;8.584;2022-07-29T14:43:46;6.72;;;4.68;;
61254;SDS011;47128;47.530;8.584;2022-07-29T14:46:12;5.80;;;4.25;;
61254;SDS011;47128;47.530;8.584;2022-07-29T14:48:38;8.63;;;4.47;;
61254;SDS011;47128;47.530;8.584;2022-07-29T14:51:04;5.97;;;4.10;;
61254;SDS011;47128;47.530;8.584;2022-07-29T14:53:31;6.45;;;4.40;;
61254;SDS011;47128;47.530;8.584;2022-07-29T14:55:57;5.38;;;4.43;;
61254;SDS011;47128;47.530;8.584;2022-07-29T14:58:25;5.60;;;4.18;;
61254;SDS011;47128;47.530;8.584;2022-07-29T15:00:53;5.90;;;4.20;;
61254;SDS011;47128;47.530;8.584;2022-07-29T15:03:19;6.65;;;4.15;;
61254;SDS011;47128;47.530;8.584;2022-07-29T15:05:45;5.53;;;3.80;;
61254;SDS011;47128;47.530;8.584;2022-07-29T15:08:11;6.10;;;4.13;;
61254;SDS011;47128;47.530;8.584;2022-07-29T15:10:36;5.47;;;3.78;;
61254;SDS011;47128;47.530;8.584;2022-07-29T15:13:05;4.30;;;3.90;;
61254;SDS011;47128;47.530;8.584;2022-07-29T15:15:49;4.82;;;3.97;;
61254;SDS011;47128;47.530;8.584;2022-07-29T15:18:15;4.53;;;4.13;;
61254;SDS011;47128;47.530;8.584;2022-07-29T15:20:44;7.15;;;4.68;;
61254;SDS011;47128;47.530;8.584;2022-07-29T15:23:11;8.20;;;4.40;;
61254;SDS011;47128;47.530;8.584;2022-07-29T15:25:38;7.47;;;4.53;;
61254;SDS011;47128;47.530;8.584;2022-07-29T15:28:04;6.63;;;4.80;;
61254;SDS011;47128;47.530;8.584;2022-07-29T15:30:34;7.55;;;5.20;;
61254;SDS011;47128;47.530;8.584;2022-07-29T15:33:07;7.97;;;5.20;;
61254;SDS011;47128;47.530;8.584;2022-07-29T15:35:35;6.95;;;5.13;;
61254;SDS011;47128;47.530;8.584;2022-07-29T15:38:11;8.77;;;6.13;;
61254;SDS011;47128;47.530;8.584;2022-07-29T15:40:38;7.28;;;6.00;;
61254;SDS011;47128;47.530;8.584;2022-07-29T15:43:06;7.70;;;5.13;;
61254;SDS011;47128;47.530;8.584;2022-07-29T15:45:38;7.85;;;5.38;;
61254;SDS011;47128;47.530;8.584;2022-07-29T15:48:05;8.43;;;5.90;;
61254;SDS011;47128;47.530;8.584;2022-07-29T15:50:32;10.52;;;5.45;;
61254;SDS011;47128;47.530;8.584;2022-07-29T15:52:58;10.20;;;6.07;;
61254;SDS011;47128;47.530;8.584;2022-07-29T15:55:24;9.15;;;5.75;;
61254;SDS011;47128;47.530;8.584;2022-07-29T15:57:50;8.52;;;5.70;;
61254;SDS011;47128;47.530;8.584;2022-07-29T16:00:15;7.22;;;5.22;;
61254;SDS011;47128;47.530;8.584;2022-07-29T16:02:44;6.03;;;5.00;;
61254;SDS011;47128;47.530;8.584;2022-07-29T16:05:12;8.85;;;5.80;;
61254;SDS011;47128;47.530;8.584;2022-07-29T16:07:38;6.50;;;5.65;;
61254;SDS011;47128;47.530;8.584;2022-07-29T16:10:04;7.35;;;5.50;;